Time;durP1;ratioP1;P1;durP2;ratioP2;P2;SDS_P1;SDS_P2;PMS_P1;PMS_P2;Temp;Humidity;BMP_temperature;BMP_pressure;BME280_temperature;BME280_humidity;BME280_pressure;Samples;Min_cycle;Max_cycle;Signal;HPM_P1;HPM_P2
2021/01/30 00:02:02;;;;;;;15.30;9.70;;;;;;;;;;667621;211;919291;-76
2021/01/30 00:04:28;;;;;;;16.63;9.07;;;;;;;;;;662387;211;919608;-75
2021/01/30 00:06:55;;;;;;;12.87;8.73;;;;;;;;;;664257;211;918651;-76
2021/01/30 00:09:20;;;;;;;17.10;9.83;;;;;;;;;;663337;211;918699;-77
2021/01/30 00:11:48;;;;;;;13.10;9.30;;;;;;;;;;665338;211;917877;-76
2021/01/30 00:14:14;;;;;;;18.17;9.40;;;;;;;;;;661452;209;918410;-77
2021/01/30 00:16:40;;;;;;;13.10;8.20;;;;;;;;;;660832;210;920512;-78
2021/01/30 00:19:06;;;;;;;14.00;8.07;;;;;;;;;;668612;210;1018368;-77
2021/01/30 00:21:32;;;;;;;15.53;8.00;;;;;;;;;;660328;207;1519012;-77
2021/01/30 00:23:57;;;;;;;12.43;8.17;;;;;;;;;;664046;210;915866;-78
2021/01/30 00:26:23;;;;;;;13.57;8.80;;;;;;;;;;667063;207;930333;-77
2021/01/30 00:28:49;;;;;;;14.57;9.00;;;;;;;;;;665922;210;1024330;-77
2021/01/30 00:31:15;;;;;;;15.07;10.50;;;;;;;;;;663666;207;919092;-78
2021/01/30 00:33:41;;;;;;;13.07;9.13;;;;;;;;;;664345;211;843493;-77
2021/01/30 00:36:07;;;;;;;13.73;8.87;;;;;;;;;;661192;208;920042;-77
2021/01/30 00:38:32;;;;;;;14.40;8.90;;;;;;;;;;661004;211;915574;-77
2021/01/30 00:41:01;;;;;;;17.65;7.78;;;;;;;;;;662981;210;914517;-76
2021/01/30 00:43:27;;;;;;;11.35;8.07;;;;;;;;;;666976;211;915762;-77
2021/01/30 00:45:52;;;;;;;14.83;7.80;;;;;;;;;;661723;211;915024;-78
2021/01/30 00:48:19;;;;;;;11.00;7.57;;;;;;;;;;661612;207;916304;-77
2021/01/30 00:50:44;;;;;;;12.05;7.10;;;;;;;;;;667817;211;914525;-77
2021/01/30 00:53:10;;;;;;;11.63;7.90;;;;;;;;;;663783;208;911369;-78
2021/01/30 00:55:36;;;;;;;10.80;7.75;;;;;;;;;;664883;211;916077;-78
2021/01/30 00:58:02;;;;;;;13.23;9.07;;;;;;;;;;661296;208;1021233;-76
2021/01/30 01:00:28;;;;;;;11.47;8.40;;;;;;;;;;668641;211;813714;-77
2021/01/30 01:02:53;;;;;;;14.60;8.70;;;;;;;;;;660430;211;915429;-77
2021/01/30 01:05:19;;;;;;;15.27;9.73;;;;;;;;;;660400;211;915560;-78
2021/01/30 01:07:45;;;;;;;16.67;10.60;;;;;;;;;;663170;210;1492209;-78
2021/01/30 01:10:11;;;;;;;19.27;10.20;;;;;;;;;;662705;210;1017043;-77
2021/01/30 01:12:37;;;;;;;12.45;8.77;;;;;;;;;;660556;211;1013897;-77
2021/01/30 01:15:03;;;;;;;16.43;7.97;;;;;;;;;;667464;210;1025123;-77
2021/01/30 01:17:29;;;;;;;12.60;8.40;;;;;;;;;;661882;211;920105;-77
2021/01/30 01:19:55;;;;;;;13.90;8.93;;;;;;;;;;663772;210;1018984;-77
2021/01/30 01:22:20;;;;;;;16.63;10.90;;;;;;;;;;663103;211;911686;-77
2021/01/30 01:24:46;;;;;;;13.73;10.20;;;;;;;;;;664730;208;911578;-76
2021/01/30 01:27:12;;;;;;;15.77;9.60;;;;;;;;;;664892;210;919568;-77
2021/01/30 01:29:38;;;;;;;18.00;10.40;;;;;;;;;;653210;208;1048629;-76
2021/01/30 01:32:04;;;;;;;13.67;8.90;;;;;;;;;;667026;210;918283;-77
2021/01/30 01:34:30;;;;;;;14.60;9.87;;;;;;;;;;660532;207;918484;-77
2021/01/30 01:36:57;;;;;;;14.65;11.00;;;;;;;;;;663630;210;933135;-77
2021/01/30 01:39:23;;;;;;;12.57;9.37;;;;;;;;;;667854;207;817206;-78
2021/01/30 01:41:51;;;;;;;14.00;9.63;;;;;;;;;;664155;210;918886;-77
2021/01/30 01:44:17;;;;;;;17.53;11.60;;;;;;;;;;661494;209;1010165;-77
2021/01/30 01:46:43;;;;;;;21.80;12.33;;;;;;;;;;661848;211;1019410;-77
2021/01/30 01:49:10;;;;;;;17.17;10.83;;;;;;;;;;665925;208;1083865;-77
2021/01/30 01:51:38;;;;;;;17.67;11.60;;;;;;;;;;665846;211;1022084;-78
2021/01/30 01:54:04;;;;;;;15.77;9.93;;;;;;;;;;661381;207;919619;-77
2021/01/30 01:56:30;;;;;;;13.70;9.90;;;;;;;;;;666570;211;916566;-77
2021/01/30 01:58:56;;;;;;;14.40;9.63;;;;;;;;;;659870;209;920095;-75
2021/01/30 02:01:22;;;;;;;13.73;9.20;;;;;;;;;;661965;211;916322;-76
2021/01/30 02:03:49;;;;;;;12.25;9.05;;;;;;;;;;663912;211;916653;-74
2021/01/30 02:06:15;;;;;;;14.97;9.30;;;;;;;;;;665483;211;911312;-76
2021/01/30 02:08:40;;;;;;;13.65;9.15;;;;;;;;;;663091;211;919312;-77
2021/01/30 02:11:06;;;;;;;17.20;11.63;;;;;;;;;;660693;211;918780;-75
2021/01/30 02:13:32;;;;;;;12.43;9.30;;;;;;;;;;667497;211;918102;-77
2021/01/30 02:16:00;;;;;;;18.33;10.93;;;;;;;;;;662854;208;919414;-77
2021/01/30 02:18:41;;;;;;;19.73;9.97;;;;;;;;;;662845;211;876160;-77
2021/01/30 02:21:13;;;;;;;15.02;10.35;;;;;;;;;;660171;204;918712;-77
2021/01/30 02:23:50;;;;;;;13.60;9.70;;;;;;;;;;663101;211;919182;-77
2021/01/30 02:26:21;;;;;;;14.53;10.43;;;;;;;;;;662832;207;902827;-76
2021/01/30 02:29:04;;;;;;;16.47;11.23;;;;;;;;;;669046;211;918318;-76
2021/01/30 02:31:32;;;;;;;20.37;11.17;;;;;;;;;;664892;208;919201;-77
2021/01/30 02:34:01;;;;;;;15.60;11.70;;;;;;;;;;662414;211;917859;-77
2021/01/30 02:36:33;;;;;;;15.13;10.37;;;;;;;;;;659491;210;919277;-77
2021/01/30 02:39:03;;;;;;;13.23;10.90;;;;;;;;;;662741;210;919321;-76
2021/01/30 02:41:29;;;;;;;16.70;10.57;;;;;;;;;;668320;211;864910;-77
2021/01/30 02:43:54;;;;;;;15.07;11.90;;;;;;;;;;665519;210;917144;-76
2021/01/30 02:46:21;;;;;;;21.60;12.40;;;;;;;;;;662998;210;896282;-77
2021/01/30 02:48:47;;;;;;;19.60;12.87;;;;;;;;;;667663;210;919136;-76
2021/01/30 02:51:13;;;;;;;18.10;11.57;;;;;;;;;;661093;210;918932;-75
2021/01/30 02:53:39;;;;;;;20.40;12.27;;;;;;;;;;664554;210;919459;-77
2021/01/30 02:56:09;;;;;;;15.53;11.17;;;;;;;;;;667657;211;918447;-74
2021/01/30 02:58:35;;;;;;;16.87;12.70;;;;;;;;;;667887;208;918654;-76
2021/01/30 03:01:01;;;;;;;17.77;10.23;;;;;;;;;;661860;211;918839;-76
2021/01/30 03:03:27;;;;;;;20.45;11.30;;;;;;;;;;661699;207;919082;-76
2021/01/30 03:05:53;;;;;;;19.30;10.70;;;;;;;;;;668290;211;918328;-76
2021/01/30 03:08:32;;;;;;;14.43;9.97;;;;;;;;;;661630;207;919596;-76
2021/01/30 03:11:02;;;;;;;15.77;10.00;;;;;;;;;;662770;211;918790;-77
2021/01/30 03:13:31;;;;;;;13.43;8.88;;;;;;;;;;661267;208;918720;-76
2021/01/30 03:15:57;;;;;;;13.23;8.40;;;;;;;;;;662846;211;918267;-75
2021/01/30 03:18:23;;;;;;;12.18;8.50;;;;;;;;;;664336;207;919422;-77
2021/01/30 03:20:49;;;;;;;17.10;9.03;;;;;;;;;;663196;211;920373;-77
2021/01/30 03:23:14;;;;;;;14.27;9.18;;;;;;;;;;661662;211;919531;-77
2021/01/30 03:25:40;;;;;;;16.50;8.97;;;;;;;;;;665003;211;920299;-77
2021/01/30 03:28:06;;;;;;;13.70;9.40;;;;;;;;;;659275;210;915739;-76
2021/01/30 03:30:32;;;;;;;13.90;8.63;;;;;;;;;;661720;211;916400;-76
2021/01/30 03:32:58;;;;;;;20.70;8.00;;;;;;;;;;666115;210;915766;-76
2021/01/30 03:35:24;;;;;;;13.10;8.60;;;;;;;;;;663473;211;1021466;-76
2021/01/30 03:37:49;;;;;;;21.30;8.43;;;;;;;;;;662560;209;918269;-76
2021/01/30 03:40:16;;;;;;;17.30;9.30;;;;;;;;;;666655;211;918153;-76
2021/01/30 03:42:42;;;;;;;14.80;9.60;;;;;;;;;;662682;211;1021948;-76
2021/01/30 03:45:08;;;;;;;11.63;7.60;;;;;;;;;;661309;208;918216;-76
2021/01/30 03:47:34;;;;;;;11.77;7.47;;;;;;;;;;663596;211;918230;-76
2021/01/30 03:50:00;;;;;;;10.77;5.70;;;;;;;;;;666963;208;919222;-77
2021/01/30 03:52:26;;;;;;;7.93;5.70;;;;;;;;;;664191;210;918394;-76
2021/01/30 03:54:51;;;;;;;10.13;6.37;;;;;;;;;;661519;207;918858;-77
2021/01/30 03:57:17;;;;;;;9.10;6.10;;;;;;;;;;667829;210;917484;-76
2021/01/30 03:59:43;;;;;;;12.80;6.20;;;;;;;;;;664413;210;892227;-76
2021/01/30 04:02:09;;;;;;;16.67;8.57;;;;;;;;;;663923;210;919316;-77
2021/01/30 04:04:35;;;;;;;8.97;6.50;;;;;;;;;;662162;207;1900543;-77
2021/01/30 04:07:01;;;;;;;12.30;7.37;;;;;;;;;;662056;210;919583;-77
2021/01/30 04:09:27;;;;;;;12.00;6.67;;;;;;;;;;661277;207;919564;-77
2021/01/30 04:11:52;;;;;;;9.63;5.47;;;;;;;;;;662242;210;919635;-77
2021/01/30 04:14:18;;;;;;;16.00;5.70;;;;;;;;;;666841;207;816565;-77
2021/01/30 04:16:44;;;;;;;9.43;5.97;;;;;;;;;;663352;211;954857;-76
2021/01/30 04:19:10;;;;;;;9.90;6.03;;;;;;;;;;661692;211;919112;-75
2021/01/30 04:21:36;;;;;;;8.63;5.80;;;;;;;;;;665960;207;919911;-77
2021/01/30 04:24:01;;;;;;;13.70;6.70;;;;;;;;;;664940;210;919496;-77
2021/01/30 04:26:27;;;;;;;9.97;6.73;;;;;;;;;;659936;210;1233421;-75
2021/01/30 04:28:53;;;;;;;11.17;6.90;;;;;;;;;;666499;211;919083;-76
2021/01/30 04:31:19;;;;;;;13.87;6.67;;;;;;;;;;661572;211;918763;-75
2021/01/30 04:33:45;;;;;;;7.87;5.82;;;;;;;;;;661341;211;1019594;-76
2021/01/30 04:36:11;;;;;;;12.70;5.50;;;;;;;;;;664836;211;919228;-76
2021/01/30 04:38:37;;;;;;;10.67;5.53;;;;;;;;;;663013;211;919080;-76
2021/01/30 04:41:03;;;;;;;8.03;5.33;;;;;;;;;;661163;211;918322;-76
2021/01/30 04:43:29;;;;;;;9.07;5.77;;;;;;;;;;660089;211;1021127;-76
2021/01/30 04:45:56;;;;;;;11.47;6.53;;;;;;;;;;666455;209;816717;-76
2021/01/30 04:48:26;;;;;;;15.25;6.50;;;;;;;;;;664493;211;918674;-76
2021/01/30 04:50:52;;;;;;;10.03;5.80;;;;;;;;;;660677;207;918411;-75
2021/01/30 04:53:20;;;;;;;12.00;5.63;;;;;;;;;;666843;211;920974;-76
2021/01/30 04:55:51;;;;;;;11.50;5.97;;;;;;;;;;665729;208;919236;-75
2021/01/30 04:58:17;;;;;;;10.30;6.67;;;;;;;;;;661938;211;919896;-76
2021/01/30 05:00:49;;;;;;;11.07;6.47;;;;;;;;;;662633;209;919400;-76
2021/01/30 05:03:35;;;;;;;10.98;6.75;;;;;;;;;;663731;207;919082;-75
2021/01/30 05:06:01;;;;;;;10.20;6.50;;;;;;;;;;665573;210;914907;-77
2021/01/30 05:08:28;;;;;;;15.17;6.50;;;;;;;;;;667104;210;814730;-76
2021/01/30 05:10:54;;;;;;;12.40;7.10;;;;;;;;;;662574;210;913107;-77
2021/01/30 05:13:21;;;;;;;7.50;5.22;;;;;;;;;;661822;207;920021;-77
2021/01/30 05:15:52;;;;;;;12.20;6.67;;;;;;;;;;667929;210;916614;-77
2021/01/30 05:18:22;;;;;;;16.07;6.97;;;;;;;;;;661051;207;912358;-78
2021/01/30 05:20:48;;;;;;;12.97;6.50;;;;;;;;;;663919;211;968525;-75
2021/01/30 05:23:14;;;;;;;9.00;4.80;;;;;;;;;;661646;209;914614;-76
2021/01/30 05:25:40;;;;;;;11.40;4.30;;;;;;;;;;668057;211;915063;-75
2021/01/30 05:28:10;;;;;;;10.53;4.53;;;;;;;;;;662119;207;912512;-75
2021/01/30 05:30:35;;;;;;;7.47;4.37;;;;;;;;;;661735;211;918361;-75
2021/01/30 05:33:08;;;;;;;10.13;4.50;;;;;;;;;;664159;210;1021392;-76
2021/01/30 05:35:37;;;;;;;6.13;4.03;;;;;;;;;;667549;211;918863;-76
2021/01/30 05:38:03;;;;;;;7.07;5.00;;;;;;;;;;661438;208;919312;-76
2021/01/30 05:40:28;;;;;;;4.70;3.50;;;;;;;;;;662207;211;918606;-76
2021/01/30 05:43:00;;;;;;;7.40;4.10;;;;;;;;;;665280;208;918286;-75
2021/01/30 05:45:33;;;;;;;7.17;4.50;;;;;;;;;;668373;211;1018078;-75
2021/01/30 05:47:58;;;;;;;7.87;3.63;;;;;;;;;;659660;211;919432;-74
2021/01/30 05:50:25;;;;;;;9.53;3.83;;;;;;;;;;662247;211;917459;-75
2021/01/30 05:52:51;;;;;;;4.47;3.33;;;;;;;;;;663342;211;919539;-73
2021/01/30 05:55:21;;;;;;;5.00;3.63;;;;;;;;;;665836;208;915096;-74
2021/01/30 05:57:47;;;;;;;5.30;3.43;;;;;;;;;;660527;211;916731;-73
2021/01/30 06:00:13;;;;;;;7.10;4.23;;;;;;;;;;661020;208;941472;-72
2021/01/30 06:02:39;;;;;;;9.13;3.93;;;;;;;;;;667313;211;920136;-75
2021/01/30 06:05:05;;;;;;;6.13;4.40;;;;;;;;;;661996;208;919718;-75
2021/01/30 06:07:31;;;;;;;4.40;2.70;;;;;;;;;;663358;211;918994;-74
2021/01/30 06:09:57;;;;;;;6.33;3.43;;;;;;;;;;665465;208;919035;-75
2021/01/30 06:12:26;;;;;;;7.18;3.55;;;;;;;;;;663040;209;919229;-75
2021/01/30 06:14:52;;;;;;;5.43;3.57;;;;;;;;;;661362;210;922534;-73
2021/01/30 06:17:30;;;;;;;6.30;3.33;;;;;;;;;;662729;210;918914;-73
2021/01/30 06:20:02;;;;;;;5.33;2.97;;;;;;;;;;659685;210;1277905;-73
2021/01/30 06:22:28;;;;;;;7.82;3.50;;;;;;;;;;667827;211;918881;-72
2021/01/30 06:24:54;;;;;;;6.20;3.13;;;;;;;;;;661281;210;940476;-74
2021/01/30 06:27:35;;;;;;;5.35;3.42;;;;;;;;;;662804;210;961397;-73
2021/01/30 06:30:01;;;;;;;4.80;3.00;;;;;;;;;;659698;210;919662;-74
2021/01/30 06:32:27;;;;;;;5.07;2.80;;;;;;;;;;667742;210;918695;-73
2021/01/30 06:35:08;;;;;;;4.10;2.30;;;;;;;;;;660033;211;920574;-72
2021/01/30 06:37:44;;;;;;;4.60;2.73;;;;;;;;;;661729;211;919358;-74
2021/01/30 06:40:13;;;;;;;8.20;3.60;;;;;;;;;;662620;208;1021355;-74
2021/01/30 06:42:39;;;;;;;8.00;3.50;;;;;;;;;;662216;210;919421;-73
2021/01/30 06:45:05;;;;;;;7.17;3.33;;;;;;;;;;664680;208;918102;-73
2021/01/30 06:47:31;;;;;;;4.37;2.75;;;;;;;;;;663430;211;918997;-74
2021/01/30 06:49:57;;;;;;;3.57;2.17;;;;;;;;;;661745;211;918974;-70
2021/01/30 06:52:23;;;;;;;4.37;2.03;;;;;;;;;;664411;207;918506;-73
2021/01/30 06:54:55;;;;;;;2.77;1.97;;;;;;;;;;669077;211;918637;-73
2021/01/30 06:57:23;;;;;;;2.70;2.00;;;;;;;;;;661756;207;918517;-74
2021/01/30 06:59:49;;;;;;;4.93;2.10;;;;;;;;;;662116;211;919337;-72
2021/01/30 07:02:14;;;;;;;3.67;2.13;;;;;;;;;;651400;210;4094854;-73
2021/01/30 07:04:41;;;;;;;2.40;1.67;;;;;;;;;;661335;211;917910;-73
2021/01/30 07:07:08;;;;;;;3.45;2.00;;;;;;;;;;660898;209;1021146;-71
2021/01/30 07:09:40;;;;;;;2.67;1.70;;;;;;;;;;661628;211;919476;-72
2021/01/30 07:12:08;;;;;;;3.87;1.77;;;;;;;;;;663985;207;911857;-72
2021/01/30 07:14:51;;;;;;;2.90;1.40;;;;;;;;;;662975;211;915889;-72
2021/01/30 07:17:20;;;;;;;2.47;1.73;;;;;;;;;;660709;207;916360;-72
2021/01/30 07:19:51;;;;;;;3.05;1.80;;;;;;;;;;662106;211;916930;-73
2021/01/30 07:22:17;;;;;;;3.00;1.97;;;;;;;;;;660422;205;922480;-70
2021/01/30 07:24:43;;;;;;;3.27;2.40;;;;;;;;;;668214;209;916324;-73
2021/01/30 07:27:28;;;;;;;2.77;1.50;;;;;;;;;;661267;210;967565;-72
2021/01/30 07:30:09;;;;;;;2.20;1.60;;;;;;;;;;660328;210;918866;-72
2021/01/30 07:32:35;;;;;;;3.00;1.93;;;;;;;;;;660701;210;919837;-72
2021/01/30 07:35:00;;;;;;;3.13;1.80;;;;;;;;;;663988;210;921373;-73
2021/01/30 07:37:27;;;;;;;4.83;2.13;;;;;;;;;;665128;210;920090;-73
2021/01/30 07:39:55;;;;;;;4.93;1.75;;;;;;;;;;664037;208;918486;-72
2021/01/30 07:42:21;;;;;;;3.43;1.97;;;;;;;;;;661632;210;919311;-72
2021/01/30 07:44:49;;;;;;;2.40;1.63;;;;;;;;;;662032;211;919498;-71
2021/01/30 07:47:18;;;;;;;2.47;1.43;;;;;;;;;;665611;210;919571;-72
2021/01/30 07:49:43;;;;;;;2.40;1.60;;;;;;;;;;660522;211;975695;-72
2021/01/30 07:52:09;;;;;;;4.73;2.23;;;;;;;;;;661496;210;915773;-70
2021/01/30 07:54:35;;;;;;;3.37;1.67;;;;;;;;;;665076;209;909269;-72
2021/01/30 07:57:04;;;;;;;2.50;1.70;;;;;;;;;;661456;210;1021165;-72
2021/01/30 07:59:46;;;;;;;4.23;1.83;;;;;;;;;;659118;207;1015238;-71
2021/01/30 08:02:18;;;;;;;3.00;1.70;;;;;;;;;;662095;211;918679;-72
2021/01/30 08:04:46;;;;;;;3.45;1.67;;;;;;;;;;660100;209;921101;-72
2021/01/30 08:07:27;;;;;;;2.30;1.60;;;;;;;;;;666659;211;917520;-71
2021/01/30 08:09:54;;;;;;;3.10;1.70;;;;;;;;;;657671;210;1990522;-72
2021/01/30 08:12:20;;;;;;;3.47;1.70;;;;;;;;;;661880;211;918440;-72
2021/01/30 08:14:49;;;;;;;5.90;2.07;;;;;;;;;;661309;208;921766;-71
2021/01/30 08:17:21;;;;;;;2.62;1.75;;;;;;;;;;660806;211;1022033;-71
2021/01/30 08:19:48;;;;;;;2.80;2.00;;;;;;;;;;664910;211;911920;-71
2021/01/30 08:22:18;;;;;;;2.80;2.10;;;;;;;;;;661677;211;953152;-71
2021/01/30 08:24:45;;;;;;;2.53;1.90;;;;;;;;;;659420;211;919384;-72
2021/01/30 08:27:14;;;;;;;2.60;1.50;;;;;;;;;;660763;211;1020439;-71
2021/01/30 08:29:40;;;;;;;2.80;1.60;;;;;;;;;;666347;209;918752;-72
2021/01/30 08:32:12;;;;;;;2.50;1.50;;;;;;;;;;663586;211;1021900;-72
2021/01/30 08:34:38;;;;;;;3.03;1.50;;;;;;;;;;662067;208;917243;-71
2021/01/30 08:37:10;;;;;;;3.73;2.10;;;;;;;;;;666240;210;919276;-72
2021/01/30 08:39:36;;;;;;;2.87;1.60;;;;;;;;;;669973;207;626030;-72
2021/01/30 08:42:02;;;;;;;3.43;1.80;;;;;;;;;;664711;210;918551;-71
2021/01/30 08:44:30;;;;;;;3.00;2.10;;;;;;;;;;662444;210;919594;-71
2021/01/30 08:47:03;;;;;;;3.30;1.73;;;;;;;;;;660967;207;919156;-70
2021/01/30 08:49:30;;;;;;;3.27;2.00;;;;;;;;;;670453;210;918245;-71
2021/01/30 08:52:14;;;;;;;7.10;2.30;;;;;;;;;;661480;209;918050;-72
2021/01/30 08:54:40;;;;;;;3.60;2.10;;;;;;;;;;663387;208;919146;-72
2021/01/30 08:57:06;;;;;;;6.50;2.30;;;;;;;;;;662833;210;919041;-72
2021/01/30 08:59:38;;;;;;;7.07;2.30;;;;;;;;;;665801;210;984283;-71
2021/01/30 09:02:04;;;;;;;2.77;2.10;;;;;;;;;;667911;207;919580;-72
2021/01/30 09:04:36;;;;;;;3.13;2.17;;;;;;;;;;663228;210;918754;-72
2021/01/30 09:07:01;;;;;;;3.90;2.27;;;;;;;;;;661067;207;922333;-72
2021/01/30 09:09:28;;;;;;;4.73;3.00;;;;;;;;;;667547;210;918434;-72
2021/01/30 09:11:56;;;;;;;5.37;2.93;;;;;;;;;;662820;210;919728;-72
2021/01/30 09:17:31;;;;;;;4.43;3.07;;;;;;;;;;653605;208;876561;-72
2021/01/30 09:19:58;;;;;;;4.23;3.47;;;;;;;;;;650406;214;928155;-72
2021/01/30 09:22:25;;;;;;;8.87;3.80;;;;;;;;;;648819;214;918448;-73
2021/01/30 09:25:06;;;;;;;9.37;5.70;;;;;;;;;;654864;214;918483;-73
2021/01/30 09:27:32;;;;;;;9.60;6.00;;;;;;;;;;654048;208;918530;-71
2021/01/30 09:29:57;;;;;;;7.57;4.57;;;;;;;;;;656624;214;993319;-74
2021/01/30 09:32:25;;;;;;;7.93;4.83;;;;;;;;;;648696;211;1021890;-71
2021/01/30 09:34:51;;;;;;;6.33;3.33;;;;;;;;;;652315;214;925124;-71
2021/01/30 09:37:23;;;;;;;6.07;3.20;;;;;;;;;;654493;214;982464;-72
2021/01/30 09:39:49;;;;;;;9.73;5.60;;;;;;;;;;651772;214;917853;-72
2021/01/30 09:42:15;;;;;;;8.37;5.20;;;;;;;;;;649338;214;916917;-71
2021/01/30 09:44:41;;;;;;;9.53;5.90;;;;;;;;;;650624;214;1021266;-72
2021/01/30 09:47:06;;;;;;;9.80;5.77;;;;;;;;;;654579;211;913460;-72
2021/01/30 09:49:47;;;;;;;5.97;5.10;;;;;;;;;;653256;213;914795;-71
2021/01/30 09:52:19;;;;;;;6.17;4.53;;;;;;;;;;652512;211;917426;-73
2021/01/30 09:54:44;;;;;;;5.10;4.20;;;;;;;;;;653345;213;914057;-73
2021/01/30 09:57:13;;;;;;;5.07;4.20;;;;;;;;;;656185;214;909091;-73
2021/01/30 09:59:39;;;;;;;5.78;4.72;;;;;;;;;;653082;214;919076;-73
2021/01/30 10:02:11;;;;;;;9.33;5.03;;;;;;;;;;656669;214;635688;-73
2021/01/30 10:04:37;;;;;;;6.23;4.97;;;;;;;;;;653959;210;670122;-73
2021/01/30 10:07:08;;;;;;;9.37;5.23;;;;;;;;;;660710;214;628562;-72
2021/01/30 10:09:34;;;;;;;8.93;5.10;;;;;;;;;;654764;211;917150;-73
2021/01/30 10:12:00;;;;;;;10.57;6.37;;;;;;;;;;657081;214;667120;-73
2021/01/30 10:14:25;;;;;;;7.23;4.37;;;;;;;;;;653272;211;620376;-72
2021/01/30 10:16:54;;;;;;;5.43;3.27;;;;;;;;;;661488;214;621091;-72
2021/01/30 10:19:20;;;;;;;8.00;4.50;;;;;;;;;;654406;214;621970;-72
2021/01/30 10:21:46;;;;;;;6.27;4.40;;;;;;;;;;656248;214;630772;-72
2021/01/30 10:24:12;;;;;;;6.00;3.33;;;;;;;;;;656751;213;719630;-72
2021/01/30 10:26:38;;;;;;;3.33;3.03;;;;;;;;;;656314;214;634115;-72
2021/01/30 10:29:04;;;;;;;4.10;2.57;;;;;;;;;;654409;214;628509;-72
2021/01/30 10:31:29;;;;;;;6.47;3.50;;;;;;;;;;658980;214;623530;-72
2021/01/30 10:33:55;;;;;;;7.50;3.97;;;;;;;;;;654760;214;630818;-70
2021/01/30 10:36:21;;;;;;;5.97;3.00;;;;;;;;;;657461;214;637231;-70
2021/01/30 10:38:47;;;;;;;4.93;3.60;;;;;;;;;;656302;214;639664;-71
2021/01/30 10:41:13;;;;;;;6.37;3.30;;;;;;;;;;656346;213;630961;-72
2021/01/30 10:43:39;;;;;;;3.67;2.70;;;;;;;;;;655272;214;627611;-70
2021/01/30 10:46:06;;;;;;;5.13;3.60;;;;;;;;;;652985;211;667605;-71
2021/01/30 10:48:33;;;;;;;4.87;2.83;;;;;;;;;;659294;214;615037;-70
2021/01/30 10:51:00;;;;;;;6.07;3.40;;;;;;;;;;652602;214;833372;-71
2021/01/30 10:53:28;;;;;;;3.70;3.10;;;;;;;;;;656492;214;626815;-71
2021/01/30 10:55:54;;;;;;;4.60;2.67;;;;;;;;;;655134;214;682311;-70
2021/01/30 10:58:32;;;;;;;5.50;2.63;;;;;;;;;;656028;212;632438;-72
2021/01/30 11:01:02;;;;;;;2.87;2.17;;;;;;;;;;656269;213;626850;-72
2021/01/30 11:03:42;;;;;;;3.50;2.40;;;;;;;;;;655555;214;638152;-70
2021/01/30 11:06:14;;;;;;;2.60;1.87;;;;;;;;;;657260;214;624547;-73
2021/01/30 11:08:40;;;;;;;5.23;2.40;;;;;;;;;;653309;214;713127;-72
2021/01/30 11:11:06;;;;;;;2.60;1.70;;;;;;;;;;658277;214;621763;-71
2021/01/30 11:13:33;;;;;;;5.00;2.20;;;;;;;;;;651452;214;659357;-71
2021/01/30 11:16:02;;;;;;;2.50;1.70;;;;;;;;;;655974;214;624534;-71
2021/01/30 11:18:37;;;;;;;3.13;2.13;;;;;;;;;;655756;214;634401;-69
2021/01/30 11:21:03;;;;;;;4.33;2.20;;;;;;;;;;656017;214;671642;-72
2021/01/30 11:23:38;;;;;;;6.67;2.50;;;;;;;;;;657154;214;626965;-71
2021/01/30 11:26:11;;;;;;;3.60;2.20;;;;;;;;;;654234;214;708633;-71
2021/01/30 11:28:37;;;;;;;4.73;2.30;;;;;;;;;;655502;214;918694;-71
2021/01/30 11:31:03;;;;;;;5.47;3.57;;;;;;;;;;658272;214;621675;-71
2021/01/30 11:33:28;;;;;;;5.10;2.33;;;;;;;;;;658118;214;637701;-71
2021/01/30 11:35:54;;;;;;;3.57;2.60;;;;;;;;;;657564;214;680639;-70
2021/01/30 11:38:20;;;;;;;3.33;2.63;;;;;;;;;;654459;214;633941;-71
2021/01/30 11:40:46;;;;;;;6.67;4.20;;;;;;;;;;658824;214;620466;-71
2021/01/30 11:43:12;;;;;;;21.57;13.77;;;;;;;;;;654620;214;787287;-70
2021/01/30 11:45:38;;;;;;;46.73;24.13;;;;;;;;;;656777;214;638205;-69
2021/01/30 11:48:04;;;;;;;35.03;21.10;;;;;;;;;;656995;214;624055;-71
2021/01/30 11:50:30;;;;;;;103.50;44.67;;;;;;;;;;654491;214;621634;-72
2021/01/30 11:53:06;;;;;;;39.43;22.27;;;;;;;;;;655121;214;678011;-71
2021/01/30 11:55:32;;;;;;;29.43;18.37;;;;;;;;;;654872;214;624259;-70
2021/01/30 11:57:58;;;;;;;39.53;17.87;;;;;;;;;;660585;214;619167;-71
2021/01/30 12:00:24;;;;;;;27.60;15.67;;;;;;;;;;654530;211;663718;-70
2021/01/30 12:02:50;;;;;;;27.23;13.93;;;;;;;;;;655209;214;629516;-70
2021/01/30 12:05:16;;;;;;;24.63;13.00;;;;;;;;;;656792;211;633202;-72
2021/01/30 12:07:42;;;;;;;15.67;9.40;;;;;;;;;;654517;214;625079;-69
2021/01/30 12:10:09;;;;;;;19.23;10.03;;;;;;;;;;654767;213;636426;-70
2021/01/30 12:12:35;;;;;;;20.90;10.77;;;;;;;;;;657050;214;642981;-70
2021/01/30 12:15:01;;;;;;;15.47;9.40;;;;;;;;;;660917;214;635761;-70
2021/01/30 12:17:33;;;;;;;24.10;12.03;;;;;;;;;;653320;210;929224;-70
2021/01/30 12:19:59;;;;;;;15.10;7.83;;;;;;;;;;656784;214;636103;-70
2021/01/30 12:22:25;;;;;;;16.03;9.00;;;;;;;;;;658408;211;632614;-70
2021/01/30 12:24:51;;;;;;;40.93;18.83;;;;;;;;;;657798;214;628711;-70
2021/01/30 12:27:17;;;;;;;34.70;19.00;;;;;;;;;;656629;214;635968;-70
2021/01/30 12:29:44;;;;;;;21.23;13.93;;;;;;;;;;655290;214;622608;-70
2021/01/30 12:32:10;;;;;;;30.37;17.23;;;;;;;;;;659250;214;630202;-70
2021/01/30 12:34:36;;;;;;;61.97;30.10;;;;;;;;;;653342;214;766949;-70
2021/01/30 12:37:02;;;;;;;61.47;27.73;;;;;;;;;;655812;214;638082;-71
2021/01/30 12:39:28;;;;;;;32.23;18.57;;;;;;;;;;656743;214;619667;-71
2021/01/30 12:41:54;;;;;;;114.93;51.60;;;;;;;;;;655371;214;839962;-71
2021/01/30 12:44:22;;;;;;;60.17;32.97;;;;;;;;;;654149;214;640580;-71
2021/01/30 12:46:46;;;;;;;69.47;32.73;;;;;;;;;;660317;214;616937;-70
2021/01/30 12:49:13;;;;;;;52.10;22.47;;;;;;;;;;655983;214;627397;-69
2021/01/30 12:51:39;;;;;;;75.30;39.47;;;;;;;;;;656569;214;636809;-70
2021/01/30 12:54:05;;;;;;;50.00;27.70;;;;;;;;;;653631;214;917292;-69
2021/01/30 12:56:31;;;;;;;41.10;23.00;;;;;;;;;;655542;214;920365;-70
2021/01/30 12:58:57;;;;;;;16.30;10.17;;;;;;;;;;653455;214;919068;-70
2021/01/30 13:01:23;;;;;;;65.30;32.83;;;;;;;;;;649474;212;1020985;-69
2021/01/30 13:03:50;;;;;;;53.87;26.80;;;;;;;;;;655761;214;918852;-69
2021/01/30 13:06:18;;;;;;;48.38;28.38;;;;;;;;;;649408;208;1123938;-70
2021/01/30 13:08:41;;;;;;;33.60;19.13;;;;;;;;;;651999;212;919514;-69
2021/01/30 13:11:08;;;;;;;49.07;20.23;;;;;;;;;;655395;211;918939;-70
2021/01/30 13:13:34;;;;;;;28.30;16.77;;;;;;;;;;654426;214;918584;-69
2021/01/30 13:16:00;;;;;;;31.47;17.23;;;;;;;;;;651475;211;919300;-70
2021/01/30 13:18:25;;;;;;;24.77;13.10;;;;;;;;;;651986;214;991214;-70
2021/01/30 13:20:52;;;;;;;15.77;8.33;;;;;;;;;;656124;211;919319;-70
2021/01/30 13:23:18;;;;;;;15.17;9.77;;;;;;;;;;653792;213;919419;-70
2021/01/30 13:25:43;;;;;;;16.70;8.57;;;;;;;;;;651975;210;918862;-69
2021/01/30 13:28:10;;;;;;;23.57;13.90;;;;;;;;;;659725;214;916324;-70
2021/01/30 13:30:35;;;;;;;19.60;13.50;;;;;;;;;;652348;214;915978;-70
2021/01/30 13:33:01;;;;;;;21.20;11.90;;;;;;;;;;650049;211;1021489;-70
2021/01/30 13:35:27;;;;;;;29.67;16.87;;;;;;;;;;657773;214;919223;-70
2021/01/30 13:37:53;;;;;;;31.70;17.53;;;;;;;;;;651600;211;921611;-70
2021/01/30 13:40:19;;;;;;;20.80;12.80;;;;;;;;;;653371;214;919415;-70
2021/01/30 13:42:46;;;;;;;34.28;18.27;;;;;;;;;;654820;212;953890;-69
2021/01/30 13:45:12;;;;;;;23.27;10.10;;;;;;;;;;655993;214;918449;-71
2021/01/30 13:47:38;;;;;;;23.47;12.27;;;;;;;;;;642598;212;2761409;-70
2021/01/30 13:50:04;;;;;;;25.45;12.82;;;;;;;;;;651514;214;1021013;-70
2021/01/30 13:52:30;;;;;;;17.93;11.33;;;;;;;;;;654946;214;916927;-70
2021/01/30 13:54:56;;;;;;;25.70;14.07;;;;;;;;;;651994;214;954071;-70
2021/01/30 13:57:22;;;;;;;21.47;12.60;;;;;;;;;;649048;214;1239367;-71
2021/01/30 13:59:47;;;;;;;17.27;11.73;;;;;;;;;;655665;214;918974;-70
2021/01/30 14:02:13;;;;;;;22.07;9.67;;;;;;;;;;651121;214;920472;-72
2021/01/30 14:04:39;;;;;;;23.00;13.60;;;;;;;;;;653184;214;916210;-71
2021/01/30 14:07:05;;;;;;;25.80;13.70;;;;;;;;;;656455;214;916176;-70
2021/01/30 14:09:31;;;;;;;24.07;11.40;;;;;;;;;;651133;214;915557;-70
2021/01/30 14:11:57;;;;;;;19.60;11.98;;;;;;;;;;651829;214;918716;-70
2021/01/30 14:14:23;;;;;;;28.67;16.07;;;;;;;;;;653075;211;874048;-70
2021/01/30 14:16:49;;;;;;;35.60;16.20;;;;;;;;;;656419;214;923677;-71
2021/01/30 14:19:14;;;;;;;29.70;15.03;;;;;;;;;;650577;211;919442;-70
2021/01/30 14:21:40;;;;;;;28.40;17.53;;;;;;;;;;652180;214;919161;-71
2021/01/30 14:24:06;;;;;;;33.10;19.00;;;;;;;;;;655758;211;919315;-71